Time;durP1;ratioP1;P1;durP2;ratioP2;P2;SDS_P1;SDS_P2;PMS_P1;PMS_P2;Temp;Humidity;BMP_temperature;BMP_pressure;BME280_temperature;BME280_humidity;BME280_pressure;Samples;Min_cycle;Max_cycle;Signal;HPM_P1;HPM_P2
2021/05/10 00:00:21;;;;;;;1.02;0.73;;;14.20;99.90;;;;;;4942672;28;20107;-74
2021/05/10 00:02:47;;;;;;;0.95;0.70;;;14.00;99.90;;;;;;4964052;28;20721;-74
2021/05/10 00:05:13;;;;;;;1.73;0.82;;;13.90;99.90;;;;;;4952803;28;20075;-74
2021/05/10 00:07:38;;;;;;;0.70;0.60;;;13.80;99.90;;;;;;4953396;28;21003;-74
2021/05/10 00:10:06;;;;;;;1.23;0.93;;;13.50;99.90;;;;;;4950277;28;20099;-74
2021/05/10 00:12:31;;;;;;;1.63;0.68;;;13.50;99.90;;;;;;4969048;28;20075;-74
2021/05/10 00:14:57;;;;;;;0.43;0.43;;;13.70;99.90;;;;;;4950765;28;20090;-74
2021/05/10 00:17:22;;;;;;;1.13;0.60;;;13.80;99.90;;;;;;4953692;28;20615;-74
2021/05/10 00:19:48;;;;;;;1.67;0.50;;;13.90;99.90;;;;;;4946734;28;20567;-74
2021/05/10 00:22:14;;;;;;;1.58;0.63;;;13.90;99.90;;;;;;4957726;28;20436;-73
2021/05/10 00:24:39;;;;;;;0.80;0.50;;;13.90;99.90;;;;;;4954659;28;20094;-74
2021/05/10 00:27:05;;;;;;;0.50;0.47;;;13.90;99.90;;;;;;4959124;28;20075;-74
2021/05/10 00:29:30;;;;;;;0.98;0.70;;;13.80;99.90;;;;;;4957545;28;20655;-74
2021/05/10 00:31:56;;;;;;;1.65;0.73;;;13.70;99.90;;;;;;4952544;28;20084;-74
2021/05/10 00:34:21;;;;;;;2.10;0.70;;;13.60;99.90;;;;;;4964480;28;20083;-74
2021/05/10 00:36:47;;;;;;;0.90;0.57;;;13.60;99.90;;;;;;4963530;28;20079;-75
2021/05/10 00:39:13;;;;;;;1.17;0.65;;;13.50;99.90;;;;;;4960121;28;20135;-75
2021/05/10 00:41:38;;;;;;;0.43;0.40;;;13.40;99.90;;;;;;4938321;29;20075;-74
2021/05/10 00:44:04;;;;;;;0.50;0.47;;;13.30;99.90;;;;;;4958692;28;20129;-75
2021/05/10 00:46:31;;;;;;;0.70;0.50;;;13.30;99.90;;;;;;4952980;28;20087;-74
2021/05/10 00:48:57;;;;;;;1.38;0.68;;;13.20;99.90;;;;;;4954616;28;20432;-74
2021/05/10 00:51:22;;;;;;;1.45;0.63;;;13.20;99.90;;;;;;4957711;28;20087;-74
2021/05/10 00:53:48;;;;;;;2.75;0.85;;;13.10;99.90;;;;;;4953275;29;20861;-75
2021/05/10 00:56:15;;;;;;;2.85;0.50;;;13.10;99.90;;;;;;4970498;28;20579;-74
2021/05/10 00:58:41;;;;;;;2.60;0.45;;;13.10;99.90;;;;;;4964263;28;20170;-74
2021/05/10 01:01:07;;;;;;;1.48;0.70;;;13.20;99.90;;;;;;4935907;29;20119;-74
2021/05/10 01:03:33;;;;;;;2.30;0.90;;;13.10;99.90;;;;;;4962698;28;20090;-74
2021/05/10 01:05:58;;;;;;;0.98;0.70;;;13.10;99.90;;;;;;4957550;28;20075;-74
2021/05/10 01:08:24;;;;;;;2.83;0.45;;;13.10;99.90;;;;;;4954693;28;20076;-74
2021/05/10 01:10:50;;;;;;;0.80;0.70;;;13.00;99.90;;;;;;4954216;28;20747;-74
2021/05/10 01:13:16;;;;;;;1.27;0.52;;;12.90;99.90;;;;;;4952904;28;20090;-74
2021/05/10 01:15:47;;;;;;;0.65;0.50;;;13.00;99.90;;;;;;4955991;28;20083;-74
2021/05/10 01:18:13;;;;;;;0.77;0.50;;;13.00;99.90;;;;;;4956928;28;20076;-74
2021/05/10 01:20:40;;;;;;;0.50;0.40;;;13.10;99.90;;;;;;4938814;29;20090;-74
2021/05/10 01:23:06;;;;;;;1.85;0.60;;;13.00;99.90;;;;;;4952196;28;20076;-74
2021/05/10 01:25:32;;;;;;;0.40;0.40;;;13.00;99.90;;;;;;4953087;28;20080;-74
2021/05/10 01:27:59;;;;;;;1.45;0.77;;;13.00;99.90;;;;;;4968898;28;20775;-74
2021/05/10 01:30:34;;;;;;;0.98;0.50;;;13.00;99.90;;;;;;4959723;28;20445;-74
2021/05/10 01:33:01;;;;;;;1.00;0.70;;;12.90;99.90;;;;;;4958511;28;20111;-74
2021/05/10 01:35:30;;;;;;;1.17;0.65;;;12.90;99.90;;;;;;4953530;28;20075;-76
2021/05/10 01:37:57;;;;;;;2.03;0.70;;;12.90;99.90;;;;;;4968673;28;20094;-75
2021/05/10 01:40:22;;;;;;;3.05;0.90;;;12.90;99.90;;;;;;4958031;28;20547;-75
2021/05/10 01:42:48;;;;;;;0.93;0.60;;;12.80;99.90;;;;;;4947627;28;20084;-74
2021/05/10 01:45:15;;;;;;;1.63;0.80;;;12.70;99.90;;;;;;4956395;28;20091;-74
2021/05/10 01:47:41;;;;;;;3.20;0.60;;;12.60;99.90;;;;;;4951711;28;20114;-75
2021/05/10 01:50:12;;;;;;;1.30;0.63;;;12.70;99.90;;;;;;4951505;28;20127;-75
2021/05/10 01:52:38;;;;;;;1.13;0.90;;;12.80;99.90;;;;;;4961303;28;20076;-75
2021/05/10 01:55:04;;;;;;;3.17;1.77;;;12.70;99.90;;;;;;4952548;28;20091;-75
2021/05/10 01:57:30;;;;;;;2.47;0.90;;;12.70;99.90;;;;;;4951666;28;20158;-75
2021/05/10 01:59:56;;;;;;;0.90;0.50;;;12.60;99.90;;;;;;4934728;28;20214;-74
2021/05/10 02:02:21;;;;;;;1.55;0.90;;;12.60;99.90;;;;;;4962024;28;20076;-75
2021/05/10 02:05:07;;;;;;;1.45;0.60;;;12.50;99.90;;;;;;4953598;28;20081;-75
2021/05/10 02:07:35;;;;;;;1.27;0.68;;;12.30;99.90;;;;;;4957316;28;20079;-74
2021/05/10 02:10:01;;;;;;;1.52;0.60;;;12.20;99.90;;;;;;4951994;28;20106;-75
2021/05/10 02:12:26;;;;;;;0.80;0.63;;;12.30;99.90;;;;;;4952552;28;20432;-75
2021/05/10 02:14:52;;;;;;;1.05;0.60;;;12.40;99.90;;;;;;4953766;28;20090;-74
2021/05/10 02:17:17;;;;;;;1.48;0.65;;;12.40;99.90;;;;;;4952705;28;20087;-75
2021/05/10 02:19:43;;;;;;;1.52;0.73;;;12.40;99.90;;;;;;4941152;28;20095;-75
2021/05/10 02:22:08;;;;;;;4.63;1.83;;;12.40;99.90;;;;;;4956868;28;20655;-75
2021/05/10 02:24:37;;;;;;;0.45;0.45;;;12.40;99.90;;;;;;4966743;28;20118;-75
2021/05/10 02:27:04;;;;;;;2.65;0.73;;;12.30;99.90;;;;;;4953072;28;20083;-74
2021/05/10 02:29:30;;;;;;;2.10;0.88;;;12.20;99.90;;;;;;4950826;28;20103;-74
2021/05/10 02:31:56;;;;;;;1.75;0.90;;;12.20;99.90;;;;;;4952578;28;20086;-75
2021/05/10 02:34:21;;;;;;;1.83;0.50;;;12.10;99.90;;;;;;4949238;28;20154;-75
2021/05/10 02:36:47;;;;;;;0.60;0.52;;;12.00;99.90;;;;;;4944009;28;20189;-75
2021/05/10 02:39:12;;;;;;;1.38;0.73;;;12.10;99.90;;;;;;4951445;28;20131;-74
2021/05/10 02:41:38;;;;;;;1.88;0.80;;;12.00;99.90;;;;;;4951637;28;20079;-75
2021/05/10 02:44:04;;;;;;;1.27;0.95;;;12.10;99.90;;;;;;4958084;28;20080;-75
2021/05/10 02:46:30;;;;;;;1.80;0.63;;;12.00;99.90;;;;;;4955863;28;20075;-75
2021/05/10 02:48:56;;;;;;;1.50;1.08;;;12.00;99.90;;;;;;4950897;28;20111;-74
2021/05/10 02:51:22;;;;;;;1.00;0.60;;;12.00;99.90;;;;;;4953006;28;20119;-74
2021/05/10 02:53:47;;;;;;;1.10;0.63;;;12.00;99.90;;;;;;4953527;28;20079;-75
2021/05/10 02:56:13;;;;;;;0.60;0.55;;;11.90;99.90;;;;;;4954788;28;20543;-75
2021/05/10 02:58:38;;;;;;;0.82;0.73;;;12.00;99.90;;;;;;4963187;28;20719;-74
2021/05/10 03:01:04;;;;;;;1.30;0.70;;;11.90;99.90;;;;;;4951157;28;20102;-75
2021/05/10 03:03:29;;;;;;;1.05;0.80;;;11.90;99.90;;;;;;4950684;28;20087;-74
2021/05/10 03:05:55;;;;;;;1.00;0.70;;;11.90;99.90;;;;;;4954356;28;20076;-75
2021/05/10 03:08:20;;;;;;;1.20;0.80;;;11.80;99.90;;;;;;4963932;28;20079;-74
2021/05/10 03:10:46;;;;;;;0.95;0.77;;;11.90;99.90;;;;;;4954380;28;20205;-75
2021/05/10 03:13:12;;;;;;;1.17;0.80;;;11.90;99.90;;;;;;4952680;28;20556;-75
2021/05/10 03:15:37;;;;;;;0.60;0.60;;;11.80;99.90;;;;;;4959163;28;20505;-74
2021/05/10 03:18:03;;;;;;;1.10;0.82;;;11.80;99.90;;;;;;4951895;28;20130;-74
2021/05/10 03:20:29;;;;;;;1.10;0.70;;;11.80;99.90;;;;;;4966005;28;20114;-74
2021/05/10 03:22:56;;;;;;;1.15;1.05;;;11.80;99.90;;;;;;4965825;28;20113;-74
2021/05/10 03:25:22;;;;;;;1.10;0.80;;;11.80;99.90;;;;;;4962750;28;20171;-74
2021/05/10 03:27:51;;;;;;;0.68;0.63;;;11.70;99.90;;;;;;4966268;28;20511;-73
2021/05/10 03:30:23;;;;;;;1.77;0.90;;;11.60;99.90;;;;;;4962459;28;20548;-75
2021/05/10 03:32:50;;;;;;;1.45;0.85;;;11.50;99.90;;;;;;4954341;28;20785;-74
2021/05/10 03:35:16;;;;;;;1.00;0.70;;;11.60;99.90;;;;;;4966267;28;20088;-74
2021/05/10 03:37:44;;;;;;;1.77;0.60;;;11.60;99.90;;;;;;4968110;28;20095;-74
2021/05/10 03:40:12;;;;;;;0.73;0.50;;;11.60;99.90;;;;;;4954474;28;20182;-74
2021/05/10 03:42:38;;;;;;;1.23;0.82;;;11.50;99.90;;;;;;4945378;28;20075;-74
2021/05/10 03:45:05;;;;;;;1.13;0.63;;;11.50;99.90;;;;;;4955962;28;20083;-74
2021/05/10 03:47:40;;;;;;;2.13;0.60;;;11.60;99.90;;;;;;4956295;28;20076;-74
2021/05/10 03:50:12;;;;;;;1.45;0.70;;;11.60;99.90;;;;;;4950811;28;20099;-75
2021/05/10 03:52:38;;;;;;;1.30;0.80;;;11.60;99.90;;;;;;4953310;28;20080;-75
2021/05/10 03:55:06;;;;;;;2.40;1.00;;;11.60;99.90;;;;;;4958512;28;20153;-74
2021/05/10 03:57:32;;;;;;;5.43;1.20;;;11.60;99.90;;;;;;4966428;28;20737;-74
2021/05/10 03:59:57;;;;;;;5.03;1.10;;;11.70;99.90;;;;;;4956245;28;20103;-74
2021/05/10 04:02:23;;;;;;;0.70;0.55;;;11.70;99.90;;;;;;4940713;28;20079;-74
2021/05/10 04:04:55;;;;;;;7.30;0.90;;;11.70;99.90;;;;;;4955621;28;20496;-74
2021/05/10 04:15:11;;;;;;;7.20;1.05;;;11.70;99.90;;;;;;4973809;28;20129;-74
2021/05/10 04:17:37;;;;;;;2.63;0.95;;;11.90;99.90;;;;;;4951015;28;20092;-74
2021/05/10 04:20:03;;;;;;;1.77;0.80;;;11.90;99.90;;;;;;4953360;28;20127;-75
2021/05/10 04:22:28;;;;;;;0.80;0.80;;;11.90;99.90;;;;;;4965246;28;20083;-75
2021/05/10 04:24:54;;;;;;;3.42;0.70;;;11.80;99.90;;;;;;4955633;28;20697;-75
2021/05/10 04:27:19;;;;;;;5.57;1.15;;;11.90;99.90;;;;;;4953831;28;20091;-74
2021/05/10 04:29:45;;;;;;;1.67;0.95;;;11.90;99.90;;;;;;4952842;28;20118;-74
2021/05/10 04:32:10;;;;;;;5.03;1.00;;;11.90;99.90;;;;;;4953990;29;20525;-74
2021/05/10 04:34:36;;;;;;;2.58;1.38;;;12.00;99.90;;;;;;4953778;29;20608;-75
2021/05/10 04:37:01;;;;;;;1.98;0.90;;;12.20;99.90;;;;;;4961770;28;20079;-75
2021/05/10 04:39:27;;;;;;;1.95;1.00;;;12.30;99.90;;;;;;4969437;28;20103;-74
2021/05/10 04:41:53;;;;;;;1.58;0.80;;;12.40;99.90;;;;;;4951596;28;20166;-75
2021/05/10 04:44:18;;;;;;;1.65;0.75;;;12.40;99.90;;;;;;4960210;28;20090;-75
2021/05/10 04:46:44;;;;;;;1.55;0.68;;;12.40;99.90;;;;;;4952784;28;20531;-75
2021/05/10 04:49:09;;;;;;;2.65;0.93;;;12.50;99.90;;;;;;4953515;28;20552;-74
2021/05/10 04:51:35;;;;;;;2.55;0.80;;;12.60;99.90;;;;;;4952769;28;20460;-74
2021/05/10 04:54:00;;;;;;;2.42;0.88;;;12.60;99.90;;;;;;4954093;28;20459;-74
2021/05/10 04:56:26;;;;;;;2.17;0.85;;;12.60;99.90;;;;;;4945691;28;20098;-74
2021/05/10 04:58:52;;;;;;;2.65;0.98;;;12.70;99.90;;;;;;4964240;28;20099;-75
2021/05/10 05:01:17;;;;;;;2.33;0.70;;;12.80;99.90;;;;;;4956945;28;20084;-75
2021/05/10 05:03:43;;;;;;;2.58;0.82;;;12.90;99.90;;;;;;4948658;28;20068;-75
2021/05/10 05:06:08;;;;;;;3.28;1.00;;;12.90;99.90;;;;;;4962856;28;20107;-75
2021/05/10 05:08:34;;;;;;;8.73;2.35;;;12.90;99.90;;;;;;4962210;28;20079;-75
2021/05/10 05:10:59;;;;;;;8.23;1.83;;;12.80;99.90;;;;;;4940653;28;20122;-75
2021/05/10 05:13:26;;;;;;;2.45;1.00;;;13.00;99.90;;;;;;4947996;28;20102;-75
2021/05/10 05:15:52;;;;;;;1.48;0.75;;;13.00;99.90;;;;;;4964424;28;20118;-75
2021/05/10 05:18:18;;;;;;;1.80;0.70;;;13.00;99.90;;;;;;4970649;28;20602;-75
2021/05/10 05:20:44;;;;;;;1.35;1.00;;;13.00;99.90;;;;;;4962515;28;20103;-74
2021/05/10 05:23:20;;;;;;;1.25;1.10;;;12.90;99.90;;;;;;4961938;28;20079;-74
2021/05/10 05:25:45;;;;;;;3.58;0.80;;;13.00;99.90;;;;;;4971647;28;20607;-73
2021/05/10 05:28:11;;;;;;;3.38;0.85;;;13.00;99.90;;;;;;4955095;28;20087;-74
2021/05/10 05:30:36;;;;;;;3.13;1.10;;;13.10;99.90;;;;;;4956819;28;20100;-74
2021/05/10 05:33:02;;;;;;;4.47;1.10;;;13.10;99.90;;;;;;4952902;28;20587;-73
2021/05/10 05:35:28;;;;;;;2.85;0.90;;;13.20;99.90;;;;;;4955027;28;20122;-74
2021/05/10 05:37:53;;;;;;;6.07;1.30;;;13.40;99.90;;;;;;4969056;28;20460;-74
2021/05/10 05:40:19;;;;;;;1.90;0.82;;;13.60;99.90;;;;;;4965898;28;20091;-74
2021/05/10 05:42:45;;;;;;;6.30;1.00;;;13.90;99.90;;;;;;4954091;28;20072;-73
2021/05/10 05:45:12;;;;;;;1.52;0.90;;;14.00;99.90;;;;;;4954231;28;20076;-73
2021/05/10 05:47:37;;;;;;;2.42;1.23;;;14.20;99.90;;;;;;4951827;28;20086;-74
2021/05/10 05:50:03;;;;;;;4.53;0.98;;;14.40;99.90;;;;;;4965720;28;20559;-75
2021/05/10 05:52:29;;;;;;;3.20;0.88;;;14.50;99.90;;;;;;4962015;28;20125;-75
2021/05/10 05:54:54;;;;;;;3.20;0.88;;;14.70;99.90;;;;;;4975191;28;20075;-75
2021/05/10 05:57:20;;;;;;;1.63;0.95;;;14.90;99.90;;;;;;4954320;28;20076;-75
2021/05/10 05:59:47;;;;;;;4.85;1.00;;;15.10;99.90;;;;;;4967303;28;20154;-74
2021/05/10 06:02:12;;;;;;;4.93;1.02;;;15.30;99.90;;;;;;4963715;28;20080;-74
2021/05/10 06:04:38;;;;;;;2.55;0.70;;;15.60;99.90;;;;;;4970896;28;20079;-75
2021/05/10 06:07:03;;;;;;;1.70;0.75;;;15.80;99.90;;;;;;4965406;28;20076;-74
2021/05/10 06:09:29;;;;;;;1.65;0.80;;;16.10;99.90;;;;;;4960489;28;20197;-75
2021/05/10 06:11:55;;;;;;;2.25;0.70;;;16.40;99.90;;;;;;4951346;28;20133;-75
2021/05/10 06:14:21;;;;;;;1.70;1.13;;;16.70;99.90;;;;;;4956356;28;20452;-74
2021/05/10 06:16:47;;;;;;;2.88;0.85;;;16.90;99.90;;;;;;4952784;28;20076;-74
2021/05/10 06:19:13;;;;;;;1.77;0.80;;;16.90;99.90;;;;;;4953492;28;20123;-75
2021/05/10 06:21:40;;;;;;;2.90;0.95;;;17.20;99.90;;;;;;4964537;28;20075;-75
2021/05/10 06:24:06;;;;;;;2.63;1.13;;;17.60;99.90;;;;;;4966897;28;20163;-74
2021/05/10 06:26:31;;;;;;;3.30;1.25;;;18.00;99.90;;;;;;4951864;28;20194;-74
2021/05/10 06:28:57;;;;;;;3.28;1.25;;;18.70;99.90;;;;;;4970978;28;20083;-74
2021/05/10 06:31:23;;;;;;;2.67;0.77;;;19.20;99.90;;;;;;4947547;28;20767;-74
2021/05/10 06:33:48;;;;;;;1.65;1.00;;;19.40;99.90;;;;;;4951285;29;20110;-75
2021/05/10 06:36:14;;;;;;;1.13;0.80;;;19.50;99.90;;;;;;4935112;28;20103;-74
2021/05/10 06:38:39;;;;;;;1.88;0.75;;;19.80;99.90;;;;;;4958619;28;20108;-74
2021/05/10 06:41:05;;;;;;;1.50;0.88;;;20.20;97.50;;;;;;4954052;28;20099;-75
2021/05/10 06:43:30;;;;;;;2.03;0.77;;;20.50;98.30;;;;;;4961278;28;20134;-74
2021/05/10 06:45:56;;;;;;;3.13;0.68;;;20.60;96.40;;;;;;4950588;28;20082;-75
2021/05/10 06:48:34;;;;;;;4.85;0.77;;;20.70;96.20;;;;;;4960814;28;20083;-75
2021/05/10 06:51:00;;;;;;;2.33;1.00;;;20.90;95.60;;;;;;4955237;28;20087;-74
2021/05/10 06:53:26;;;;;;;3.13;0.63;;;21.10;96.10;;;;;;4950515;28;20110;-75
2021/05/10 06:55:52;;;;;;;4.35;0.90;;;21.30;94.20;;;;;;4959111;28;20096;-74
2021/05/10 06:58:18;;;;;;;1.65;0.88;;;21.40;94.30;;;;;;4965637;28;20084;-74
2021/05/10 07:00:45;;;;;;;2.25;0.60;;;21.70;94.30;;;;;;4953698;28;20096;-74
2021/05/10 07:03:11;;;;;;;1.70;0.52;;;21.80;93.80;;;;;;4952620;28;20086;-74
2021/05/10 07:05:36;;;;;;;2.53;0.68;;;21.80;88.70;;;;;;4949355;28;20106;-75
2021/05/10 07:08:10;;;;;;;1.27;0.80;;;21.80;85.70;;;;;;4975719;28;20548;-75
2021/05/10 07:10:36;;;;;;;1.50;0.63;;;21.80;90.60;;;;;;4963091;28;20092;-75
2021/05/10 07:13:02;;;;;;;2.80;0.80;;;21.80;92.60;;;;;;4959084;28;20110;-75
2021/05/10 07:15:28;;;;;;;1.70;0.57;;;21.90;93.50;;;;;;4955163;28;20079;-75
2021/05/10 07:18:07;;;;;;;1.40;0.70;;;22.10;92.10;;;;;;4961855;28;20071;-79
2021/05/10 07:20:34;;;;;;;1.17;0.60;;;22.00;90.00;;;;;;4949531;28;20134;-75
2021/05/10 07:23:00;;;;;;;5.07;0.80;;;22.30;89.00;;;;;;4950487;28;20095;-75
2021/05/10 07:25:26;;;;;;;3.05;0.75;;;22.30;88.20;;;;;;4950859;28;20150;-75
2021/05/10 07:27:52;;;;;;;0.98;0.88;;;22.30;86.50;;;;;;4955015;28;20075;-76
2021/05/10 07:30:18;;;;;;;2.00;0.68;;;22.20;88.50;;;;;;4965814;28;20113;-76
2021/05/10 07:32:44;;;;;;;3.72;0.98;;;22.10;87.70;;;;;;4933104;28;20082;-75
2021/05/10 07:35:10;;;;;;;1.73;0.70;;;22.20;90.90;;;;;;4955463;28;20080;-74
2021/05/10 07:37:36;;;;;;;2.65;0.77;;;22.20;88.20;;;;;;4971656;28;20079;-74
2021/05/10 07:40:04;;;;;;;4.32;0.65;;;22.40;87.90;;;;;;4951248;28;20106;-75
2021/05/10 07:42:30;;;;;;;2.85;0.70;;;22.40;90.40;;;;;;4959778;28;20086;-75
2021/05/10 07:44:55;;;;;;;1.45;0.70;;;22.40;90.00;;;;;;4967906;28;20151;-75
2021/05/10 07:47:21;;;;;;;2.40;0.60;;;22.30;89.40;;;;;;4955061;28;20561;-75
2021/05/10 07:49:46;;;;;;;2.03;0.80;;;22.40;86.20;;;;;;4960956;28;20552;-74
2021/05/10 07:52:12;;;;;;;5.35;1.17;;;22.50;83.70;;;;;;4950075;28;20671;-75
2021/05/10 07:54:37;;;;;;;1.27;0.80;;;22.60;86.20;;;;;;4953192;28;20129;-75
2021/05/10 07:57:03;;;;;;;1.70;0.88;;;22.70;90.10;;;;;;4957464;28;20095;-75
2021/05/10 07:59:29;;;;;;;1.40;0.80;;;22.80;89.80;;;;;;4931848;28;20166;-76
2021/05/10 08:01:57;;;;;;;1.77;0.90;;;22.80;89.10;;;;;;4961818;28;20137;-76
2021/05/10 08:04:22;;;;;;;3.80;1.00;;;22.90;87.70;;;;;;4951691;28;20138;-79
2021/05/10 08:06:48;;;;;;;3.42;0.80;;;22.90;89.20;;;;;;4943376;28;20084;-76
2021/05/10 08:09:13;;;;;;;4.25;0.80;;;23.10;90.30;;;;;;4956244;28;20095;-75
2021/05/10 08:11:39;;;;;;;2.75;0.70;;;23.20;90.70;;;;;;4948854;28;20087;-75
2021/05/10 08:14:05;;;;;;;2.97;0.75;;;23.30;90.20;;;;;;4957912;28;20166;-76
2021/05/10 08:16:31;;;;;;;2.35;0.70;;;23.50;89.90;;;;;;4964427;28;20090;-75
2021/05/10 08:18:57;;;;;;;4.47;0.60;;;23.50;89.70;;;;;;4960413;28;20100;-75
2021/05/10 08:21:22;;;;;;;2.15;0.70;;;23.70;91.10;;;;;;4967408;28;20151;-76
2021/05/10 08:23:48;;;;;;;1.98;1.05;;;23.70;86.30;;;;;;4957898;28;20080;-76
2021/05/10 08:26:13;;;;;;;4.35;0.75;;;23.90;82.30;;;;;;4931403;29;20083;-76
2021/05/10 08:28:39;;;;;;;3.53;0.63;;;23.80;84.10;;;;;;4964949;28;20091;-77
2021/05/10 08:31:05;;;;;;;1.77;0.57;;;23.80;84.30;;;;;;4960407;28;20087;-77
2021/05/10 08:33:30;;;;;;;3.17;0.90;;;23.80;79.70;;;;;;4954201;28;20083;-77
2021/05/10 08:35:56;;;;;;;1.05;0.70;;;23.90;82.20;;;;;;4968870;28;20071;-77
2021/05/10 08:38:22;;;;;;;4.22;0.93;;;24.10;83.90;;;;;;4929339;28;563637;-77
2021/05/10 08:40:50;;;;;;;4.03;0.70;;;24.00;81.40;;;;;;4967296;28;20463;-76
2021/05/10 08:43:21;;;;;;;3.65;1.35;;;24.10;84.00;;;;;;4968623;28;20082;-76
2021/05/10 08:45:54;;;;;;;1.65;0.90;;;24.20;78.30;;;;;;4957615;28;20076;-77
2021/05/10 08:48:24;;;;;;;4.72;0.73;;;24.50;85.00;;;;;;4964726;28;20075;-75
2021/05/10 08:50:51;;;;;;;1.67;0.70;;;24.60;81.90;;;;;;4960911;28;20456;-76
2021/05/10 08:53:30;;;;;;;4.78;0.55;;;24.70;78.80;;;;;;4955571;28;20145;-76
2021/05/10 08:55:56;;;;;;;3.13;0.77;;;25.00;76.90;;;;;;4972933;28;20773;-78
2021/05/10 08:58:21;;;;;;;3.95;0.98;;;24.90;75.30;;;;;;4970007;28;20118;-76
2021/05/10 09:00:54;;;;;;;2.13;0.63;;;24.80;73.70;;;;;;4962845;28;20095;-78
2021/05/10 09:03:20;;;;;;;1.25;0.70;;;24.90;79.50;;;;;;4966676;28;20075;-77
2021/05/10 09:05:57;;;;;;;2.92;0.80;;;24.80;75.60;;;;;;4966904;28;20075;-78
2021/05/10 09:08:22;;;;;;;2.83;0.70;;;24.80;76.10;;;;;;4978974;28;20063;-77
2021/05/10 09:11:05;;;;;;;2.88;0.77;;;25.00;80.40;;;;;;4992600;28;20094;-77
2021/05/10 09:13:33;;;;;;;2.97;0.88;;;25.20;71.50;;;;;;4963200;28;20072;-77
2021/05/10 09:16:03;;;;;;;2.78;1.15;;;25.40;76.60;;;;;;4972802;28;20068;-77
2021/05/10 09:18:29;;;;;;;1.02;0.50;;;25.30;71.60;;;;;;4970210;28;20080;-77
2021/05/10 09:21:11;;;;;;;2.25;0.77;;;25.50;74.40;;;;;;4966837;28;20091;-77
2021/05/10 09:23:38;;;;;;;4.00;1.42;;;25.40;70.20;;;;;;4953653;29;20075;-77
2021/05/10 09:26:04;;;;;;;1.00;0.60;;;25.40;69.10;;;;;;4955928;28;20076;-77
2021/05/10 09:28:37;;;;;;;3.95;1.40;;;25.40;74.70;;;;;;4959099;28;20126;-78
2021/05/10 09:31:11;;;;;;;2.35;1.00;;;25.50;71.10;;;;;;4955206;28;20091;-77
2021/05/10 09:33:48;;;;;;;2.47;1.00;;;25.60;65.40;;;;;;4967963;28;20475;-77
2021/05/10 09:36:39;;;;;;;2.70;0.80;;;25.60;66.00;;;;;;4960199;28;20071;-77
2021/05/10 09:39:08;;;;;;;3.53;1.60;;;25.60;64.80;;;;;;4970635;28;20099;-77
2021/05/10 09:41:34;;;;;;;3.60;0.73;;;25.70;64.80;;;;;;4969777;28;20126;-77
2021/05/10 09:44:05;;;;;;;3.10;0.55;;;25.80;63.00;;;;;;4975123;28;20324;-76
2021/05/10 09:47:00;;;;;;;1.20;0.60;;;25.80;59.20;;;;;;4964729;28;20079;-76
2021/05/10 09:49:46;;;;;;;4.07;0.80;;;25.90;59.80;;;;;;4966960;28;20107;-77
2021/05/10 09:52:24;;;;;;;2.33;0.95;;;25.80;57.80;;;;;;4953562;28;20169;-78
2021/05/10 09:54:53;;;;;;;1.92;0.80;;;25.40;57.10;;;;;;4970065;28;20823;-77
2021/05/10 09:57:19;;;;;;;2.03;0.52;;;25.40;58.30;;;;;;4962430;28;20083;-77
2021/05/10 10:00:14;;;;;;;3.00;1.23;;;25.50;62.20;;;;;;4950008;28;20095;-76
2021/05/10 10:02:39;;;;;;;1.75;0.80;;;25.60;58.90;;;;;;4965441;28;20082;-77
2021/05/10 10:05:07;;;;;;;2.83;0.60;;;25.60;59.40;;;;;;4955489;28;20076;-77
2021/05/10 10:07:37;;;;;;;1.30;0.80;;;25.70;62.00;;;;;;4956165;28;20075;-76
2021/05/10 10:10:03;;;;;;;3.05;0.77;;;25.80;56.10;;;;;;4962059;28;20188;-77
2021/05/10 10:12:29;;;;;;;1.77;0.65;;;25.80;61.40;;;;;;4960825;28;20596;-76
2021/05/10 10:14:54;;;;;;;1.75;0.80;;;25.90;57.00;;;;;;4953229;28;20124;-78
2021/05/10 10:17:20;;;;;;;2.90;0.90;;;26.00;56.80;;;;;;4964127;28;20090;-77
2021/05/10 10:19:46;;;;;;;3.42;0.63;;;26.10;61.00;;;;;;4964571;28;20821;-76
2021/05/10 10:22:14;;;;;;;3.10;0.68;;;26.20;62.20;;;;;;4952872;28;20088;-76
2021/05/10 10:24:42;;;;;;;3.33;0.70;;;26.40;54.30;;;;;;4953895;28;20110;-75
2021/05/10 10:27:10;;;;;;;1.15;0.43;;;26.40;56.80;;;;;;4953024;28;20079;-77
2021/05/10 10:29:38;;;;;;;1.95;0.70;;;26.30;54.70;;;;;;4964168;28;20091;-77
2021/05/10 10:32:04;;;;;;;2.38;0.63;;;26.40;62.40;;;;;;4939593;28;20099;-77
2021/05/10 10:34:40;;;;;;;2.88;0.63;;;26.40;58.50;;;;;;4948867;28;20076;-77
2021/05/10 10:37:06;;;;;;;4.00;0.90;;;26.40;56.10;;;;;;4950396;28;20075;-77
2021/05/10 10:39:33;;;;;;;3.53;0.95;;;26.30;57.20;;;;;;4969217;28;20178;-76
2021/05/10 10:42:02;;;;;;;4.70;0.70;;;26.30;63.40;;;;;;4957667;28;20079;-76
2021/05/10 10:44:42;;;;;;;2.03;0.70;;;26.50;58.90;;;;;;4950945;28;20067;-76
2021/05/10 10:47:17;;;;;;;3.85;0.95;;;26.20;60.20;;;;;;4949620;28;20539;-76
2021/05/10 10:49:46;;;;;;;3.97;0.73;;;26.20;61.20;;;;;;4961257;28;20130;-76
2021/05/10 10:52:18;;;;;;;3.40;0.70;;;26.30;60.10;;;;;;4960043;28;20084;-76
2021/05/10 10:54:44;;;;;;;4.50;1.52;;;26.30;61.40;;;;;;4957391;28;20171;-76
2021/05/10 10:57:09;;;;;;;1.38;0.70;;;26.50;64.00;;;;;;4959468;28;20087;-75
2021/05/10 10:59:40;;;;;;;5.05;1.30;;;26.70;60.90;;;;;;4959450;28;20099;-76
2021/05/10 11:02:20;;;;;;;5.68;0.70;;;26.60;56.80;;;;;;4951324;28;20155;-74
2021/05/10 11:05:06;;;;;;;3.38;0.73;;;26.60;62.70;;;;;;4956168;28;20075;-75
2021/05/10 11:07:47;;;;;;;4.40;0.68;;;26.30;55.30;;;;;;4962976;28;20071;-79
2021/05/10 11:10:32;;;;;;;2.08;0.80;;;26.50;60.70;;;;;;4960127;28;20134;-80
2021/05/10 11:12:58;;;;;;;2.30;0.70;;;26.70;64.40;;;;;;4951743;28;20084;-75
2021/05/10 11:15:35;;;;;;;4.50;1.00;;;26.80;59.90;;;;;;4949943;28;20788;-75
2021/05/10 11:18:02;;;;;;;1.90;0.85;;;26.80;58.10;;;;;;4956632;28;20079;-75
2021/05/10 11:20:43;;;;;;;1.95;0.70;;;26.90;58.10;;;;;;4950820;28;20099;-75
2021/05/10 11:23:24;;;;;;;1.85;0.75;;;26.90;55.90;;;;;;4950155;28;20098;-75
2021/05/10 11:25:54;;;;;;;6.20;0.63;;;27.00;58.80;;;;;;4948916;28;20503;-76
2021/05/10 11:28:27;;;;;;;2.40;1.08;;;26.90;54.50;;;;;;4954777;28;20149;-75
2021/05/10 11:31:07;;;;;;;3.28;0.90;;;26.90;60.40;;;;;;4957172;28;20083;-75
2021/05/10 11:33:56;;;;;;;3.17;1.00;;;27.00;61.60;;;;;;4968020;28;20446;-75
2021/05/10 11:36:22;;;;;;;3.78;1.27;;;27.20;58.80;;;;;;4946771;28;20500;-75
2021/05/10 11:38:57;;;;;;;1.88;0.70;;;27.40;56.40;;;;;;4948441;28;20122;-75
2021/05/10 11:41:43;;;;;;;3.45;0.60;;;27.30;52.20;;;;;;4949305;28;20078;-74
2021/05/10 11:44:18;;;;;;;3.28;0.65;;;27.30;50.60;;;;;;4951317;28;20078;-75
2021/05/10 11:46:50;;;;;;;4.57;1.40;;;27.10;46.40;;;;;;4953585;28;20098;-74
2021/05/10 11:49:32;;;;;;;2.38;1.00;;;27.00;59.10;;;;;;4950302;28;20227;-75
2021/05/10 11:52:07;;;;;;;4.65;1.15;;;27.20;55.80;;;;;;4957698;28;20079;-75
2021/05/10 11:54:34;;;;;;;3.90;1.00;;;27.30;56.20;;;;;;4953544;28;20082;-75
2021/05/10 11:57:03;;;;;;;6.10;0.95;;;27.20;54.80;;;;;;4959462;28;20094;-75
2021/05/10 12:02:01;;;;;;;2.75;0.98;;;27.60;57.90;;;;;;4960722;28;20079;-75
2021/05/10 12:04:31;;;;;;;1.98;0.80;;;27.50;59.50;;;;;;4967138;28;20083;-75
2021/05/10 12:06:58;;;;;;;3.40;0.63;;;27.30;53.40;;;;;;4957203;28;20098;-75
2021/05/10 12:09:34;;;;;;;4.13;0.82;;;27.40;54.70;;;;;;4967707;28;20531;-75
2021/05/10 12:12:01;;;;;;;3.70;0.93;;;27.30;53.40;;;;;;4952238;28;20893;-76
2021/05/10 12:14:27;;;;;;;1.58;0.60;;;27.40;57.80;;;;;;4970931;28;20079;-74
2021/05/10 12:17:13;;;;;;;3.90;0.73;;;27.50;53.80;;;;;;4961589;28;20079;-74
2021/05/10 12:20:06;;;;;;;2.65;0.60;;;27.30;55.20;;;;;;4960380;28;20564;-75
2021/05/10 12:22:44;;;;;;;2.08;0.77;;;27.40;51.00;;;;;;4946752;28;20084;-74
2021/05/10 12:25:10;;;;;;;3.13;0.60;;;27.40;54.80;;;;;;4964039;28;20071;-75
2021/05/10 12:27:47;;;;;;;2.97;0.93;;;27.50;50.00;;;;;;4953078;28;20075;-74
2021/05/10 12:30:25;;;;;;;1.73;0.50;;;27.60;52.10;;;;;;4970571;28;20110;-74
2021/05/10 12:32:54;;;;;;;5.22;0.65;;;27.60;46.20;;;;;;4955684;28;20089;-76
2021/05/10 12:35:26;;;;;;;2.65;0.50;;;27.40;53.40;;;;;;4954639;28;21621;-74
2021/05/10 12:37:54;;;;;;;2.90;0.88;;;27.50;53.20;;;;;;4953839;28;20082;-75
2021/05/10 12:40:35;;;;;;;3.60;0.82;;;27.50;52.60;;;;;;4971797;28;20095;-75
2021/05/10 12:43:06;;;;;;;3.95;0.60;;;27.50;53.40;;;;;;4970312;28;20500;-75
2021/05/10 12:45:33;;;;;;;3.85;1.17;;;27.50;48.00;;;;;;4970830;28;20151;-75
2021/05/10 12:48:09;;;;;;;2.03;0.50;;;27.50;52.90;;;;;;4958022;28;20076;-75
2021/05/10 12:50:45;;;;;;;5.18;0.65;;;27.40;51.00;;;;;;4959724;28;20475;-75
2021/05/10 12:53:11;;;;;;;1.80;0.68;;;27.50;56.60;;;;;;4957152;28;20455;-75
2021/05/10 12:55:39;;;;;;;3.00;0.68;;;27.40;46.50;;;;;;4970866;28;20091;-75
2021/05/10 12:58:22;;;;;;;2.65;0.70;;;27.40;50.20;;;;;;4966248;28;20083;-75
2021/05/10 13:00:48;;;;;;;2.15;0.52;;;27.80;50.70;;;;;;4963954;28;20576;-75
2021/05/10 13:03:25;;;;;;;4.32;0.93;;;27.50;48.50;;;;;;4961024;28;20090;-76